Time;durP1;ratioP1;P1;durP2;ratioP2;P2;SDS_P1;SDS_P2;PMS_P1;PMS_P2;Temp;Humidity;BMP_temperature;BMP_pressure;BME280_temperature;BME280_humidity;BME280_pressure;Samples;Min_cycle;Max_cycle;Signal;HPM_P1;HPM_P2
2021/08/05 00:01:37;;;;;;;3.15;2.88;;;23.80;67.20;;;;;;4997866;28;20565;-77
2021/08/05 00:04:03;;;;;;;4.18;2.83;;;23.80;67.10;;;;;;5001654;28;21004;-77
2021/08/05 00:06:29;;;;;;;2.92;2.35;;;23.70;67.20;;;;;;5009494;28;21453;-75
2021/08/05 00:08:54;;;;;;;4.10;2.85;;;23.70;67.40;;;;;;4997829;28;20217;-77
2021/08/05 00:11:20;;;;;;;3.22;2.97;;;23.70;67.60;;;;;;5007192;28;20188;-76
2021/08/05 00:13:46;;;;;;;4.90;2.88;;;23.60;67.30;;;;;;4998449;28;20208;-76
2021/08/05 00:16:12;;;;;;;8.70;2.90;;;23.60;67.80;;;;;;5004436;28;20288;-76
2021/08/05 00:18:37;;;;;;;3.13;2.88;;;23.60;68.80;;;;;;5006968;28;20185;-75
2021/08/05 00:21:03;;;;;;;3.10;2.88;;;23.50;67.90;;;;;;5005117;28;20259;-76
2021/08/05 00:23:29;;;;;;;5.20;2.45;;;23.50;68.20;;;;;;5007797;28;20574;-73
2021/08/05 00:25:54;;;;;;;3.63;3.20;;;23.50;67.90;;;;;;5007912;28;20193;-76
2021/08/05 00:28:20;;;;;;;6.25;2.53;;;23.50;68.30;;;;;;4994825;28;20189;-76
2021/08/05 00:30:46;;;;;;;5.45;2.70;;;23.50;68.40;;;;;;5006773;28;20183;-76
2021/08/05 00:33:11;;;;;;;5.63;3.38;;;23.40;68.60;;;;;;5006864;28;20264;-76
2021/08/05 00:35:37;;;;;;;6.28;2.75;;;23.40;68.60;;;;;;5004835;28;20245;-76
2021/08/05 00:38:03;;;;;;;3.40;3.13;;;23.40;68.90;;;;;;5011175;28;20280;-76
2021/08/05 00:40:28;;;;;;;4.75;2.92;;;23.30;68.80;;;;;;5006521;28;20193;-77
2021/08/05 00:42:54;;;;;;;6.63;3.45;;;23.30;68.90;;;;;;5009805;28;20185;-76
2021/08/05 00:45:20;;;;;;;3.60;3.33;;;23.30;69.20;;;;;;5004881;28;20180;-77
2021/08/05 00:47:45;;;;;;;4.00;3.60;;;23.30;69.00;;;;;;5006521;28;20598;-75
2021/08/05 00:50:11;;;;;;;3.42;2.63;;;23.20;69.10;;;;;;5008429;28;20218;-77
2021/08/05 00:52:38;;;;;;;2.85;2.58;;;23.20;69.30;;;;;;5007637;28;20192;-76
2021/08/05 00:55:05;;;;;;;5.25;3.10;;;23.20;69.30;;;;;;4997970;28;20190;-77
2021/08/05 00:57:31;;;;;;;3.70;2.97;;;23.10;69.20;;;;;;5009164;28;20196;-76
2021/08/05 00:59:58;;;;;;;4.15;2.95;;;23.10;69.20;;;;;;5007811;28;20271;-78
2021/08/05 01:02:28;;;;;;;5.30;2.70;;;23.10;69.60;;;;;;5010186;28;20577;-76
2021/08/05 01:04:56;;;;;;;3.80;2.72;;;23.00;69.40;;;;;;5007303;28;20587;-76
2021/08/05 01:07:43;;;;;;;3.55;2.78;;;23.00;69.50;;;;;;5009947;28;20670;-76
2021/08/05 01:10:38;;;;;;;5.85;2.90;;;22.90;70.60;;;;;;5007336;28;21042;-77
2021/08/05 01:13:13;;;;;;;2.88;2.67;;;22.90;69.70;;;;;;5025778;28;20887;-76
2021/08/05 01:15:39;;;;;;;3.28;2.97;;;22.90;70.30;;;;;;5025504;28;20274;-75
2021/08/05 01:18:35;;;;;;;2.85;2.70;;;22.80;70.00;;;;;;5007783;28;20681;-76
2021/08/05 01:21:09;;;;;;;2.67;2.47;;;22.80;71.60;;;;;;4991640;28;20203;-76
2021/08/05 01:23:53;;;;;;;4.82;3.13;;;22.80;69.70;;;;;;4987506;28;20236;-76
2021/08/05 01:26:29;;;;;;;4.15;3.30;;;22.80;69.90;;;;;;4989100;28;20201;-75
2021/08/05 01:28:56;;;;;;;3.83;3.53;;;22.70;70.00;;;;;;4986839;28;20288;-75
2021/08/05 01:31:22;;;;;;;3.63;3.10;;;22.70;70.30;;;;;;4987093;28;20280;-77
2021/08/05 01:33:49;;;;;;;3.50;3.20;;;22.60;69.90;;;;;;4987478;28;20190;-77
2021/08/05 01:36:16;;;;;;;2.92;2.70;;;22.60;70.40;;;;;;4989933;28;20753;-77
2021/08/05 01:38:43;;;;;;;2.88;2.67;;;22.60;70.10;;;;;;4988927;28;20225;-77
2021/08/05 01:41:10;;;;;;;4.55;2.65;;;22.60;70.20;;;;;;4986568;28;20224;-77
2021/08/05 01:43:38;;;;;;;3.25;2.63;;;22.60;70.60;;;;;;4983403;28;20191;-77
2021/08/05 01:46:05;;;;;;;5.03;2.92;;;22.60;70.30;;;;;;4985430;28;20193;-77
2021/08/05 01:48:32;;;;;;;4.38;3.15;;;22.50;70.60;;;;;;4996809;28;20247;-77
2021/08/05 01:51:00;;;;;;;3.47;3.17;;;22.60;70.20;;;;;;4963698;28;20680;-77
2021/08/05 01:53:26;;;;;;;10.38;3.20;;;22.50;70.10;;;;;;4966499;28;21072;-77
2021/08/05 01:55:53;;;;;;;2.95;2.70;;;22.50;70.50;;;;;;4949151;28;20254;-77
2021/08/05 01:58:18;;;;;;;3.30;3.10;;;22.40;70.60;;;;;;4999265;28;20201;-78
2021/08/05 02:00:44;;;;;;;3.08;2.88;;;22.40;70.90;;;;;;5005564;28;20192;-78
2021/08/05 02:03:12;;;;;;;4.38;2.88;;;22.40;70.80;;;;;;5008100;28;20212;-78
2021/08/05 02:05:47;;;;;;;3.20;2.42;;;22.40;71.30;;;;;;4998735;28;20247;-78
2021/08/05 02:08:17;;;;;;;2.88;2.70;;;22.40;70.80;;;;;;5007439;28;20741;-77
2021/08/05 02:10:44;;;;;;;2.75;2.55;;;22.30;70.50;;;;;;5007601;28;20274;-78
2021/08/05 02:13:19;;;;;;;5.28;2.70;;;22.30;70.40;;;;;;5005393;28;20255;-78
2021/08/05 02:15:54;;;;;;;3.50;2.50;;;22.30;70.20;;;;;;5009165;28;20194;-77
2021/08/05 02:18:22;;;;;;;2.58;2.47;;;22.30;70.60;;;;;;5008620;28;20259;-76
2021/08/05 02:20:49;;;;;;;2.70;2.50;;;22.30;70.40;;;;;;5001138;28;20180;-77
2021/08/05 02:23:16;;;;;;;2.63;2.42;;;22.30;70.30;;;;;;5002608;28;20640;-77
2021/08/05 02:25:43;;;;;;;2.88;2.67;;;22.30;70.50;;;;;;5003353;28;20199;-77
2021/08/05 02:28:10;;;;;;;3.53;3.03;;;22.30;71.00;;;;;;5006301;28;20911;-77
2021/08/05 02:30:38;;;;;;;2.90;2.75;;;22.30;71.00;;;;;;5000717;28;20878;-77
2021/08/05 02:33:05;;;;;;;6.07;2.83;;;22.30;70.80;;;;;;4999459;28;20181;-77
2021/08/05 02:35:36;;;;;;;2.33;2.22;;;22.30;71.00;;;;;;5006114;28;20184;-76
2021/08/05 02:38:03;;;;;;;2.70;2.60;;;22.20;71.30;;;;;;5001632;28;21911;-76
2021/08/05 02:40:31;;;;;;;3.05;2.83;;;22.20;71.30;;;;;;5006427;28;20658;-77
2021/08/05 02:42:59;;;;;;;4.38;3.05;;;22.20;71.80;;;;;;4997475;28;20681;-76
2021/08/05 02:45:25;;;;;;;2.65;2.50;;;22.20;71.80;;;;;;5001732;28;20735;-77
2021/08/05 02:47:52;;;;;;;5.45;2.50;;;22.20;71.90;;;;;;4994738;28;20263;-75
2021/08/05 02:50:18;;;;;;;6.13;2.42;;;22.10;71.90;;;;;;5005022;28;20197;-76
2021/08/05 02:52:44;;;;;;;4.60;2.63;;;22.10;72.10;;;;;;4994646;28;20255;-77
2021/08/05 02:55:11;;;;;;;4.72;3.03;;;22.00;72.00;;;;;;4999847;28;20626;-77
2021/08/05 02:57:37;;;;;;;3.92;2.45;;;22.00;72.10;;;;;;5003525;28;20681;-77
2021/08/05 03:00:05;;;;;;;3.55;2.70;;;22.00;71.90;;;;;;4997712;28;20206;-77
2021/08/05 03:02:30;;;;;;;3.08;2.60;;;22.00;71.90;;;;;;5003870;28;20687;-77
2021/08/05 03:04:56;;;;;;;4.78;2.72;;;22.00;72.50;;;;;;5001127;28;20181;-77
2021/08/05 03:07:22;;;;;;;5.10;3.72;;;22.00;72.20;;;;;;5003321;28;20208;-77
2021/08/05 03:09:48;;;;;;;4.78;3.80;;;22.00;73.00;;;;;;4996425;28;20668;-77
2021/08/05 03:12:13;;;;;;;3.88;3.20;;;22.00;72.80;;;;;;5006629;28;20207;-77
2021/08/05 03:14:39;;;;;;;3.63;3.28;;;21.90;72.50;;;;;;5006860;28;20185;-77
2021/08/05 03:17:05;;;;;;;3.40;3.10;;;21.90;72.50;;;;;;5004585;28;20196;-77
2021/08/05 03:19:30;;;;;;;3.47;3.17;;;21.90;72.10;;;;;;5002340;28;20272;-77
2021/08/05 03:21:56;;;;;;;3.50;3.30;;;21.90;72.40;;;;;;4995004;28;20184;-77
2021/08/05 03:24:22;;;;;;;3.08;2.88;;;21.80;72.50;;;;;;5012294;28;20212;-77
2021/08/05 03:26:47;;;;;;;3.70;3.35;;;21.90;72.20;;;;;;5008217;28;20199;-77
2021/08/05 03:29:13;;;;;;;6.75;3.40;;;21.80;72.70;;;;;;4995627;28;20757;-77
2021/08/05 03:31:39;;;;;;;5.63;3.53;;;21.80;72.70;;;;;;5000516;28;20295;-77
2021/08/05 03:34:04;;;;;;;6.43;3.00;;;21.80;72.50;;;;;;4998786;28;20637;-77
2021/08/05 03:36:30;;;;;;;3.33;3.13;;;21.80;73.10;;;;;;5002440;28;20219;-76
2021/08/05 03:38:56;;;;;;;3.72;3.42;;;21.80;72.80;;;;;;4997952;28;20214;-76
2021/08/05 03:41:21;;;;;;;4.72;2.80;;;21.80;72.70;;;;;;4998962;28;20638;-76
2021/08/05 03:43:47;;;;;;;3.33;3.10;;;21.80;73.00;;;;;;4999689;28;20181;-76
2021/08/05 03:46:12;;;;;;;3.55;3.28;;;21.80;72.50;;;;;;5002578;28;20189;-77
2021/08/05 03:48:39;;;;;;;3.00;2.75;;;21.70;72.90;;;;;;5001552;28;20225;-78
2021/08/05 03:51:05;;;;;;;3.88;3.08;;;21.70;73.60;;;;;;5005994;28;20196;-77
2021/08/05 03:53:35;;;;;;;3.65;2.80;;;21.60;72.80;;;;;;4998185;28;20189;-77
2021/08/05 03:56:01;;;;;;;3.08;2.78;;;21.60;72.50;;;;;;5005613;28;20208;-77
2021/08/05 03:58:26;;;;;;;3.83;3.63;;;21.70;73.40;;;;;;4995902;28;20189;-75
2021/08/05 04:00:52;;;;;;;3.92;3.08;;;21.60;73.10;;;;;;4998577;28;20242;-77
2021/08/05 04:03:18;;;;;;;5.35;3.20;;;21.60;73.20;;;;;;5007452;28;20209;-78
2021/08/05 04:05:43;;;;;;;3.95;3.65;;;21.60;73.40;;;;;;5004321;28;20193;-76
2021/08/05 04:08:09;;;;;;;5.10;3.42;;;21.60;74.60;;;;;;4994695;28;20273;-77
2021/08/05 04:10:35;;;;;;;3.50;2.90;;;21.50;73.10;;;;;;5006988;28;20255;-77
2021/08/05 04:13:00;;;;;;;5.03;3.47;;;21.50;73.90;;;;;;5005068;28;20541;-77
2021/08/05 04:15:26;;;;;;;3.20;3.10;;;21.50;73.70;;;;;;5007257;28;20275;-77
2021/08/05 04:17:52;;;;;;;4.13;3.72;;;21.50;73.70;;;;;;5010211;28;20185;-77
2021/08/05 04:20:19;;;;;;;4.18;3.47;;;21.40;73.90;;;;;;5002679;28;20193;-77
2021/08/05 04:22:44;;;;;;;4.15;3.35;;;21.50;73.50;;;;;;5007240;28;20181;-76
2021/08/05 04:25:10;;;;;;;4.88;3.10;;;21.50;73.90;;;;;;5006421;28;20707;-77
2021/08/05 04:27:38;;;;;;;6.53;3.42;;;21.50;73.60;;;;;;5004485;28;20709;-78
2021/08/05 04:30:06;;;;;;;5.15;3.72;;;21.60;73.70;;;;;;5005113;28;20228;-75
2021/08/05 04:32:32;;;;;;;6.35;3.75;;;21.60;73.50;;;;;;4993807;28;20243;-74
2021/08/05 04:34:57;;;;;;;6.85;3.83;;;21.70;73.40;;;;;;5009771;28;20625;-74
2021/08/05 04:37:23;;;;;;;3.95;3.63;;;21.70;73.70;;;;;;5006646;28;20708;-73
2021/08/05 04:39:49;;;;;;;3.40;3.20;;;21.80;73.20;;;;;;5002533;28;20181;-74
2021/08/05 04:42:14;;;;;;;6.60;3.22;;;21.90;73.30;;;;;;5004723;28;20236;-74
2021/08/05 04:44:40;;;;;;;6.65;3.17;;;21.90;73.10;;;;;;5010182;28;20572;-74
2021/08/05 04:47:06;;;;;;;3.55;3.25;;;22.00;73.30;;;;;;5006951;28;20192;-74
2021/08/05 04:49:32;;;;;;;4.45;2.97;;;22.00;73.20;;;;;;5008052;28;20255;-74
2021/08/05 04:51:58;;;;;;;7.03;3.55;;;22.10;73.30;;;;;;5009952;28;20265;-74
2021/08/05 04:54:23;;;;;;;3.88;3.42;;;22.10;73.40;;;;;;5009582;28;20176;-74
2021/08/05 04:56:50;;;;;;;4.38;3.97;;;22.20;73.00;;;;;;5001463;28;20189;-74
2021/08/05 04:59:15;;;;;;;7.65;3.67;;;22.30;72.80;;;;;;5001981;28;20236;-74
2021/08/05 05:01:43;;;;;;;9.98;4.07;;;22.30;72.90;;;;;;4995271;28;20221;-74
2021/08/05 05:04:10;;;;;;;5.15;4.35;;;22.40;72.80;;;;;;5004368;28;20189;-75
2021/08/05 05:06:37;;;;;;;4.45;3.58;;;22.40;73.20;;;;;;5003826;28;20185;-75
2021/08/05 05:09:03;;;;;;;5.88;4.13;;;22.40;72.40;;;;;;5004300;28;20229;-74
2021/08/05 05:11:30;;;;;;;5.72;3.97;;;22.50;72.20;;;;;;5008913;28;20198;-73
2021/08/05 05:13:55;;;;;;;3.67;3.47;;;22.50;72.70;;;;;;5007793;28;20330;-73
2021/08/05 05:16:21;;;;;;;4.13;3.80;;;22.50;72.00;;;;;;5008107;28;20282;-73
2021/08/05 05:18:47;;;;;;;3.90;3.65;;;22.50;71.80;;;;;;5001625;28;20190;-73
2021/08/05 05:21:12;;;;;;;4.13;3.70;;;22.50;71.70;;;;;;5005184;28;20193;-74
2021/08/05 05:23:38;;;;;;;3.95;3.63;;;22.60;71.70;;;;;;4998489;28;20188;-73
2021/08/05 05:26:04;;;;;;;5.72;3.70;;;22.60;71.80;;;;;;5002472;28;20192;-74
2021/08/05 05:28:30;;;;;;;4.18;3.88;;;22.70;71.80;;;;;;4999086;28;20181;-74
2021/08/05 05:30:57;;;;;;;4.20;3.85;;;22.80;72.00;;;;;;5003100;28;20189;-74
2021/08/05 05:33:23;;;;;;;6.40;3.80;;;22.90;71.80;;;;;;5008414;28;20184;-73
2021/08/05 05:35:49;;;;;;;7.18;4.03;;;22.90;71.90;;;;;;4997737;28;20185;-73
2021/08/05 05:38:14;;;;;;;7.00;3.78;;;22.90;72.20;;;;;;5004314;28;20235;-73
2021/08/05 05:40:40;;;;;;;5.60;4.28;;;23.00;72.20;;;;;;4990572;28;20192;-73
2021/08/05 05:43:06;;;;;;;4.30;3.90;;;23.00;72.10;;;;;;4993361;28;20181;-74
2021/08/05 05:45:33;;;;;;;3.95;3.72;;;23.10;71.80;;;;;;5000003;28;20186;-74
2021/08/05 05:48:00;;;;;;;5.07;3.97;;;23.20;71.80;;;;;;5001302;28;20264;-77
2021/08/05 05:50:27;;;;;;;6.53;4.40;;;23.20;71.90;;;;;;4997237;28;20296;-76
2021/08/05 05:52:53;;;;;;;10.27;4.15;;;23.30;71.70;;;;;;4998411;28;20189;-76
2021/08/05 05:55:19;;;;;;;4.60;4.20;;;23.40;71.90;;;;;;5005463;28;20177;-77
2021/08/05 05:57:44;;;;;;;5.38;4.65;;;23.40;72.00;;;;;;5008615;28;20192;-77
2021/08/05 06:00:11;;;;;;;5.05;4.50;;;23.50;72.10;;;;;;5007015;28;20232;-76
2021/08/05 06:02:36;;;;;;;5.53;4.53;;;23.60;72.20;;;;;;4997830;28;20260;-76
2021/08/05 06:05:02;;;;;;;4.25;3.88;;;23.70;72.30;;;;;;5003788;28;20729;-78
2021/08/05 06:07:28;;;;;;;4.65;3.97;;;23.80;72.50;;;;;;5007757;28;20725;-76
2021/08/05 06:09:54;;;;;;;4.80;4.35;;;23.80;72.60;;;;;;5001480;28;20808;-77
2021/08/05 06:12:20;;;;;;;8.13;5.10;;;23.90;72.60;;;;;;5005047;28;20188;-77
2021/08/05 06:14:46;;;;;;;4.95;4.65;;;24.00;73.00;;;;;;5008188;28;20180;-77
2021/08/05 06:17:12;;;;;;;7.30;5.13;;;24.00;73.00;;;;;;4996472;28;20213;-75
2021/08/05 06:19:38;;;;;;;7.65;4.55;;;24.10;72.80;;;;;;5004731;28;20286;-75
2021/08/05 06:22:03;;;;;;;5.95;4.63;;;24.20;72.80;;;;;;5007571;28;20188;-74
2021/08/05 06:24:29;;;;;;;7.25;4.57;;;24.30;72.90;;;;;;5007947;28;20185;-75
2021/08/05 06:26:55;;;;;;;8.23;4.65;;;24.40;73.20;;;;;;5008033;28;20721;-75
2021/08/05 06:29:21;;;;;;;4.25;3.97;;;24.50;73.50;;;;;;5007769;28;20221;-75
2021/08/05 06:31:47;;;;;;;6.90;4.93;;;24.60;73.40;;;;;;5006714;28;20585;-76
2021/08/05 06:34:13;;;;;;;5.43;4.90;;;24.70;73.40;;;;;;5008077;28;20173;-75
2021/08/05 06:36:38;;;;;;;9.80;4.93;;;24.80;73.80;;;;;;5008314;28;20177;-76
2021/08/05 06:39:05;;;;;;;6.28;5.00;;;24.90;73.50;;;;;;5007657;28;20181;-75
2021/08/05 06:41:32;;;;;;;6.93;5.45;;;24.90;73.50;;;;;;5007875;28;20651;-75
2021/08/05 06:43:58;;;;;;;6.88;4.97;;;25.00;74.20;;;;;;5005823;28;20207;-75
2021/08/05 06:46:26;;;;;;;5.45;4.80;;;25.10;73.70;;;;;;5007166;28;20176;-74
2021/08/05 06:48:52;;;;;;;6.45;5.00;;;25.10;73.60;;;;;;5006127;28;20225;-75
2021/08/05 06:51:18;;;;;;;7.40;5.45;;;25.20;73.70;;;;;;5006451;28;20191;-75
2021/08/05 06:53:44;;;;;;;5.72;5.07;;;25.30;74.10;;;;;;5007533;28;21572;-75
2021/08/05 06:56:09;;;;;;;6.32;5.72;;;25.40;73.80;;;;;;5007876;28;20196;-75
2021/08/05 06:58:35;;;;;;;5.32;4.82;;;25.40;73.70;;;;;;5007864;28;20184;-75
2021/08/05 07:01:01;;;;;;;8.55;5.38;;;25.50;73.80;;;;;;5007723;28;20582;-75
2021/08/05 07:03:27;;;;;;;10.57;5.10;;;25.60;73.80;;;;;;5007423;28;20185;-75
2021/08/05 07:05:54;;;;;;;5.57;5.15;;;25.70;73.60;;;;;;5005881;28;20192;-76
2021/08/05 07:08:20;;;;;;;14.05;5.93;;;25.70;73.40;;;;;;5005235;28;20988;-75
2021/08/05 07:10:45;;;;;;;6.57;5.80;;;25.80;73.60;;;;;;5008503;28;20197;-80
2021/08/05 07:13:11;;;;;;;5.85;5.25;;;25.90;73.50;;;;;;5007568;28;20172;-77
2021/08/05 07:15:37;;;;;;;7.70;6.00;;;26.00;73.60;;;;;;5007042;28;20581;-77
2021/08/05 07:18:03;;;;;;;10.48;5.75;;;26.10;73.70;;;;;;5007052;28;20603;-76
2021/08/05 07:20:28;;;;;;;5.70;5.25;;;26.20;73.70;;;;;;5007588;28;20859;-80
2021/08/05 07:22:54;;;;;;;7.18;5.65;;;26.30;73.60;;;;;;5004760;28;20177;-76
2021/08/05 07:25:20;;;;;;;5.85;5.35;;;26.40;73.60;;;;;;5005060;28;20181;-76
2021/08/05 07:27:47;;;;;;;5.72;5.30;;;26.50;73.50;;;;;;5004458;28;20954;-76
2021/08/05 07:30:15;;;;;;;5.38;5.07;;;26.60;73.20;;;;;;5007301;28;20216;-76
2021/08/05 07:32:41;;;;;;;9.30;5.32;;;26.70;73.30;;;;;;5016347;28;20181;-77
2021/08/05 07:35:08;;;;;;;7.40;5.63;;;26.80;73.20;;;;;;4996291;28;20252;-77
2021/08/05 07:37:34;;;;;;;5.85;5.43;;;26.90;73.00;;;;;;5003976;28;20173;-77
2021/08/05 07:40:00;;;;;;;6.07;5.50;;;27.00;72.80;;;;;;4997496;28;20579;-77
2021/08/05 07:42:26;;;;;;;6.30;5.70;;;27.00;73.30;;;;;;4997117;28;20267;-77
2021/08/05 07:44:52;;;;;;;5.90;5.35;;;27.20;73.00;;;;;;5000565;28;20181;-74
2021/08/05 07:47:18;;;;;;;8.82;6.05;;;27.30;73.10;;;;;;5000751;28;20185;-77
2021/08/05 07:49:44;;;;;;;5.63;5.18;;;27.40;72.90;;;;;;5007645;28;20227;-77
2021/08/05 07:52:10;;;;;;;5.90;5.38;;;27.50;72.70;;;;;;5007042;28;20204;-74
2021/08/05 07:54:37;;;;;;;8.63;6.15;;;27.60;72.90;;;;;;5001568;28;20576;-75
2021/08/05 07:57:03;;;;;;;6.15;5.60;;;27.70;72.50;;;;;;4999380;28;20279;-76
2021/08/05 07:59:29;;;;;;;5.25;4.90;;;27.80;72.20;;;;;;5010789;28;20185;-75
2021/08/05 08:01:55;;;;;;;7.47;5.57;;;27.90;72.10;;;;;;5009667;28;20243;-74
2021/08/05 08:04:20;;;;;;;7.88;5.22;;;28.00;71.90;;;;;;5000128;28;20698;-75
2021/08/05 08:06:46;;;;;;;6.10;5.55;;;28.20;71.70;;;;;;5001454;28;20177;-75
2021/08/05 08:09:12;;;;;;;15.32;5.65;;;28.30;71.70;;;;;;5002293;28;20760;-76
2021/08/05 08:11:37;;;;;;;6.53;4.82;;;28.40;72.00;;;;;;4998207;28;20584;-76
2021/08/05 08:14:03;;;;;;;7.43;6.10;;;28.50;71.80;;;;;;5002591;28;21014;-75
2021/08/05 08:16:29;;;;;;;6.10;5.50;;;28.60;71.50;;;;;;5007628;28;20204;-77
2021/08/05 08:18:54;;;;;;;8.75;5.50;;;28.70;71.40;;;;;;5010476;28;20689;-75
2021/08/05 08:21:21;;;;;;;12.02;6.53;;;28.80;71.00;;;;;;5002151;28;20717;-75
2021/08/05 08:23:47;;;;;;;6.75;5.65;;;29.00;70.70;;;;;;5000494;28;20259;-74
2021/08/05 08:26:14;;;;;;;6.28;5.78;;;29.10;70.30;;;;;;5005158;28;20193;-74
2021/08/05 08:28:40;;;;;;;6.63;5.57;;;29.20;70.50;;;;;;5003223;28;20719;-75
2021/08/05 08:31:06;;;;;;;12.75;5.97;;;29.40;70.50;;;;;;4998700;28;20268;-75
2021/08/05 08:33:31;;;;;;;7.38;6.18;;;29.50;70.00;;;;;;5010191;28;20310;-74
2021/08/05 08:35:58;;;;;;;6.65;6.15;;;29.60;69.20;;;;;;4996635;28;20268;-74
2021/08/05 08:38:24;;;;;;;10.38;6.68;;;29.70;69.00;;;;;;4999373;28;20185;-74
2021/08/05 08:40:57;;;;;;;9.77;6.53;;;29.80;68.70;;;;;;5008848;28;20193;-74
2021/08/05 08:43:23;;;;;;;7.32;6.68;;;30.00;68.20;;;;;;5007063;28;20209;-75
2021/08/05 08:45:52;;;;;;;8.95;6.63;;;30.10;67.50;;;;;;5000081;28;20177;-74
2021/08/05 08:48:18;;;;;;;16.90;7.00;;;30.30;66.40;;;;;;5003690;28;20776;-78
2021/08/05 08:50:45;;;;;;;7.70;7.05;;;30.40;66.00;;;;;;5006447;28;20227;-78
2021/08/05 08:53:11;;;;;;;13.55;7.70;;;30.50;65.30;;;;;;4999082;28;20189;-74
2021/08/05 08:55:42;;;;;;;25.77;8.02;;;30.60;65.30;;;;;;5007197;28;20184;-74
2021/08/05 08:58:11;;;;;;;15.10;7.57;;;30.80;64.90;;;;;;5004711;28;20193;-73
2021/08/05 09:00:37;;;;;;;15.32;7.15;;;30.90;64.70;;;;;;5002374;28;20176;-73
2021/08/05 09:03:05;;;;;;;13.68;7.25;;;31.00;64.80;;;;;;5002430;28;20231;-70
2021/08/05 09:05:31;;;;;;;10.30;7.72;;;31.20;64.50;;;;;;4999640;28;20209;-75
2021/08/05 09:08:00;;;;;;;7.38;6.55;;;31.30;64.40;;;;;;5002962;28;20255;-74
2021/08/05 09:10:27;;;;;;;7.20;6.30;;;31.50;63.20;;;;;;5007453;28;20252;-75
2021/08/05 09:12:55;;;;;;;9.73;6.63;;;31.60;63.20;;;;;;5006410;28;20201;-75
2021/08/05 09:15:49;;;;;;;10.85;7.47;;;31.80;62.90;;;;;;5008768;28;20189;-74
2021/08/05 09:18:41;;;;;;;14.40;7.00;;;32.00;63.10;;;;;;4986616;28;20208;-73
2021/08/05 09:21:18;;;;;;;7.97;6.60;;;32.10;61.70;;;;;;4989526;28;20260;-74
2021/08/05 09:23:53;;;;;;;9.48;6.55;;;32.30;62.60;;;;;;4976575;28;20193;-73
2021/08/05 09:26:22;;;;;;;13.77;6.95;;;32.40;62.10;;;;;;4973453;28;20364;-75
2021/08/05 09:29:06;;;;;;;7.28;6.15;;;32.60;61.90;;;;;;4992667;28;20228;-75
2021/08/05 09:31:33;;;;;;;9.60;6.60;;;32.80;61.50;;;;;;4988694;28;20201;-75
2021/08/05 09:34:07;;;;;;;9.25;7.22;;;33.10;61.00;;;;;;4992961;28;20275;-76
2021/08/05 09:36:34;;;;;;;13.32;7.85;;;33.30;60.50;;;;;;4987037;28;20247;-76
2021/08/05 09:39:00;;;;;;;13.80;7.50;;;33.50;58.70;;;;;;4987242;28;20190;-76
2021/08/05 09:41:26;;;;;;;15.13;7.97;;;33.70;57.70;;;;;;4970157;28;20614;-76
2021/08/05 09:44:01;;;;;;;10.15;8.25;;;33.90;58.10;;;;;;4990050;28;20185;-75
2021/08/05 09:46:31;;;;;;;11.63;6.80;;;34.20;57.60;;;;;;4991436;28;20303;-75
2021/08/05 09:48:57;;;;;;;13.23;6.32;;;34.50;57.60;;;;;;4987466;28;20222;-76
2021/08/05 09:51:23;;;;;;;7.50;6.70;;;34.80;57.30;;;;;;4989922;28;20185;-77
2021/08/05 09:53:58;;;;;;;10.05;7.55;;;35.20;57.10;;;;;;4987054;28;20201;-76
2021/08/05 09:56:25;;;;;;;12.63;6.85;;;35.60;57.20;;;;;;5005379;28;20262;-75
2021/08/05 09:58:51;;;;;;;7.45;6.70;;;36.00;55.90;;;;;;5004467;28;20188;-75
2021/08/05 10:01:17;;;;;;;16.02;9.60;;;36.40;55.00;;;;;;5003635;28;20206;-74
2021/08/05 10:03:43;;;;;;;11.40;8.18;;;36.80;55.00;;;;;;5001805;28;20180;-76
2021/08/05 10:06:09;;;;;;;11.23;8.40;;;37.30;53.60;;;;;;5005253;28;20180;-77
2021/08/05 10:08:40;;;;;;;8.57;7.38;;;37.80;51.90;;;;;;5003313;28;20181;-76
2021/08/05 10:11:07;;;;;;;14.73;8.40;;;38.30;52.00;;;;;;5004491;28;20189;-75
2021/08/05 10:13:40;;;;;;;9.07;7.43;;;38.90;51.40;;;;;;5000448;28;20248;-76
2021/08/05 10:16:08;;;;;;;11.52;6.65;;;39.60;50.80;;;;;;5000465;28;20211;-79
2021/08/05 10:18:36;;;;;;;21.08;8.65;;;40.10;49.20;;;;;;5005231;28;20187;-76
2021/08/05 10:21:05;;;;;;;12.65;7.43;;;40.40;47.70;;;;;;5000359;28;20201;-75
2021/08/05 10:23:31;;;;;;;17.20;7.45;;;40.90;46.60;;;;;;4996249;28;20185;-76
2021/08/05 10:25:59;;;;;;;16.85;7.82;;;41.40;45.90;;;;;;5007588;28;20234;-76
2021/08/05 10:28:27;;;;;;;15.68;7.35;;;42.00;46.00;;;;;;5006208;28;20188;-76
2021/08/05 10:30:55;;;;;;;15.57;7.65;;;42.40;43.30;;;;;;5006657;28;20622;-75
2021/08/05 10:33:21;;;;;;;10.40;7.78;;;43.00;44.80;;;;;;5002407;28;20260;-75
2021/08/05 10:35:48;;;;;;;13.23;7.60;;;43.50;42.60;;;;;;4990604;28;20646;-75
2021/08/05 10:38:20;;;;;;;13.52;8.30;;;43.90;41.30;;;;;;5002003;28;20188;-75
2021/08/05 10:40:48;;;;;;;10.40;7.78;;;44.20;40.90;;;;;;4989722;28;20698;-75
2021/08/05 10:43:14;;;;;;;10.75;7.57;;;44.50;40.30;;;;;;5005400;28;20184;-75
2021/08/05 10:45:41;;;;;;;14.35;8.07;;;44.80;39.40;;;;;;5003969;28;20180;-75
2021/08/05 10:48:08;;;;;;;20.27;8.23;;;44.60;39.00;;;;;;5007329;28;20184;-75
2021/08/05 10:50:43;;;;;;;16.55;8.77;;;44.20;38.30;;;;;;5004424;28;20215;-75
2021/08/05 10:53:36;;;;;;;11.93;8.13;;;43.90;38.60;;;;;;4997903;28;20222;-75
2021/08/05 10:56:23;;;;;;;10.18;8.77;;;44.00;37.50;;;;;;5002934;28;20649;-74
2021/08/05 10:59:03;;;;;;;14.70;8.57;;;44.30;37.60;;;;;;5002100;28;20177;-72
2021/08/05 11:01:48;;;;;;;13.70;8.27;;;44.70;37.70;;;;;;4999984;28;20184;-74
2021/08/05 11:04:39;;;;;;;16.73;8.68;;;44.80;36.20;;;;;;5003520;28;20184;-73
2021/08/05 11:07:21;;;;;;;13.07;7.55;;;44.70;35.90;;;;;;4995672;28;20201;-74
2021/08/05 11:09:47;;;;;;;7.63;6.75;;;44.80;36.60;;;;;;5003119;28;20797;-74
2021/08/05 11:12:36;;;;;;;13.73;6.90;;;45.00;37.60;;;;;;5004224;28;20189;-74
2021/08/05 11:15:03;;;;;;;12.70;7.15;;;45.50;34.40;;;;;;5004571;28;20192;-73
2021/08/05 11:17:28;;;;;;;17.67;8.25;;;45.90;36.20;;;;;;5011021;28;20176;-73
2021/08/05 11:20:13;;;;;;;7.75;7.05;;;45.90;35.10;;;;;;4999270;28;20189;-71
2021/08/05 11:22:40;;;;;;;13.20;8.10;;;45.90;35.40;;;;;;5003335;28;20177;-73
2021/08/05 11:25:06;;;;;;;17.48;7.78;;;45.80;37.60;;;;;;5006193;28;20184;-73
2021/08/05 11:27:32;;;;;;;14.82;8.13;;;45.70;36.60;;;;;;5005722;28;20273;-72
2021/08/05 11:29:58;;;;;;;10.73;8.35;;;45.40;37.30;;;;;;5002559;28;20734;-74
2021/08/05 11:32:26;;;;;;;18.95;7.53;;;45.00;35.80;;;;;;5003969;28;20267;-74
2021/08/05 11:34:59;;;;;;;15.38;7.22;;;44.10;35.50;;;;;;5000814;28;20188;-74
2021/08/05 11:37:26;;;;;;;8.15;6.68;;;43.30;36.00;;;;;;4999540;28;20852;-73
2021/08/05 11:39:57;;;;;;;12.23;6.97;;;42.60;36.80;;;;;;5007676;28;20578;-74
2021/08/05 11:42:25;;;;;;;7.93;7.20;;;42.20;36.80;;;;;;5002847;28;20196;-73
2021/08/05 11:44:57;;;;;;;13.13;7.70;;;41.70;36.30;;;;;;5007589;28;20176;-74
2021/08/05 11:47:34;;;;;;;13.88;6.60;;;41.40;36.90;;;;;;5002452;28;20211;-74
2021/08/05 11:50:03;;;;;;;16.73;6.65;;;41.50;36.60;;;;;;5005758;28;20293;-74
2021/08/05 11:52:29;;;;;;;18.42;6.95;;;41.80;37.00;;;;;;5002622;28;20188;-74
2021/08/05 11:55:09;;;;;;;11.48;5.57;;;42.20;37.40;;;;;;4999241;28;20258;-74
2021/08/05 11:57:45;;;;;;;16.98;5.75;;;42.70;35.70;;;;;;5004941;28;20272;-73
2021/08/05 12:00:35;;;;;;;13.70;5.53;;;43.00;35.70;;;;;;5004465;28;20697;-74
2021/08/05 12:03:12;;;;;;;12.18;5.40;;;43.10;34.10;;;;;;5002335;28;20251;-74
2021/08/05 12:05:42;;;;;;;9.43;5.22;;;43.10;36.20;;;;;;5000978;28;20180;-74
2021/08/05 12:08:09;;;;;;;14.73;5.32;;;42.70;35.00;;;;;;5012601;28;20260;-74
2021/08/05 12:10:37;;;;;;;12.00;5.50;;;42.10;36.10;;;;;;5006338;28;20610;-73
2021/08/05 12:13:11;;;;;;;9.43;5.22;;;41.80;35.80;;;;;;5004794;28;20807;-73
2021/08/05 12:15:41;;;;;;;9.85;5.18;;;41.50;36.60;;;;;;5001698;28;20680;-73
2021/08/05 12:18:07;;;;;;;11.02;4.53;;;41.40;34.90;;;;;;5004439;28;20189;-73
2021/08/05 12:20:39;;;;;;;9.75;4.47;;;41.50;34.70;;;;;;4997721;28;20699;-73
2021/08/05 12:23:07;;;;;;;13.13;5.03;;;41.50;35.70;;;;;;5005501;28;20601;-75
2021/08/05 12:25:38;;;;;;;8.90;4.53;;;41.50;35.40;;;;;;5005228;28;20199;-74
2021/08/05 12:28:08;;;;;;;6.75;3.70;;;41.50;35.70;;;;;;5001692;28;20180;-73
2021/08/05 12:30:35;;;;;;;11.73;4.57;;;41.60;35.20;;;;;;4996459;28;20220;-74
2021/08/05 12:33:07;;;;;;;9.30;4.05;;;41.60;35.20;;;;;;4996636;28;20193;-74
2021/08/05 12:35:33;;;;;;;8.02;4.32;;;41.40;35.40;;;;;;4997950;28;20274;-74
2021/08/05 12:38:08;;;;;;;9.40;4.30;;;41.10;36.10;;;;;;5000377;28;20216;-74
2021/08/05 12:40:37;;;;;;;12.98;4.35;;;40.90;35.70;;;;;;5004220;28;20230;-73
2021/08/05 12:43:06;;;;;;;6.75;4.47;;;40.80;36.10;;;;;;5008926;28;20193;-73
2021/08/05 12:45:34;;;;;;;13.63;3.97;;;40.40;36.50;;;;;;5009682;28;20195;-74
2021/08/05 12:48:02;;;;;;;5.00;3.53;;;40.00;36.90;;;;;;5007265;28;20181;-75
2021/08/05 12:50:28;;;;;;;8.77;4.43;;;39.60;35.80;;;;;;5005357;28;20219;-75